Time;durP1;ratioP1;P1;durP2;ratioP2;P2;SDS_P1;SDS_P2;PMS_P1;PMS_P2;Temp;Humidity;BMP_temperature;BMP_pressure;BME280_temperature;BME280_humidity;BME280_pressure;Samples;Min_cycle;Max_cycle;Signal;HPM_P1;HPM_P2
2021/12/05 00:17:07;;;;;;;8.68;4.20;;;5.40;76.80;;;;;;5051915;28;20118;-73
2021/12/05 00:23:18;;;;;;;11.68;4.93;;;5.40;77.30;;;;;;5054694;28;20048;-74
2021/12/05 00:25:49;;;;;;;8.07;4.30;;;5.40;77.30;;;;;;5053067;28;20044;-74
2021/12/05 00:31:05;;;;;;;6.88;4.25;;;5.50;77.50;;;;;;5054426;28;20044;-75
2021/12/05 00:59:28;;;;;;;7.40;3.33;;;5.50;77.80;;;;;;5052358;28;20377;-75
2021/12/05 01:15:27;;;;;;;7.97;2.92;;;5.60;77.80;;;;;;4976371;28;20082;-74
2021/12/05 01:18:02;;;;;;;10.43;4.07;;;5.60;77.70;;;;;;4977705;28;20055;-74
2021/12/05 01:20:39;;;;;;;9.55;2.97;;;5.60;77.70;;;;;;4957565;28;20061;-75
2021/12/05 01:23:11;;;;;;;6.90;3.67;;;5.60;77.70;;;;;;4975777;28;20493;-75
2021/12/05 01:25:49;;;;;;;6.10;2.97;;;5.60;77.60;;;;;;4974821;28;20116;-75
2021/12/05 01:31:13;;;;;;;9.90;3.47;;;5.60;77.60;;;;;;4956757;28;20058;-74
2021/12/05 01:49:20;;;;;;;8.75;3.60;;;5.50;77.50;;;;;;5049145;28;20435;-74
2021/12/05 01:52:12;;;;;;;8.95;4.15;;;5.50;77.50;;;;;;5053574;28;20049;-74
2021/12/05 01:57:36;;;;;;;8.82;4.18;;;5.50;78.00;;;;;;5052156;28;20124;-74
2021/12/05 02:00:23;;;;;;;13.05;4.63;;;5.50;77.60;;;;;;5044904;28;20100;-74
2021/12/05 02:16:42;;;;;;;11.55;5.63;;;5.60;77.80;;;;;;4985112;28;20066;-74
2021/12/05 02:38:50;;;;;;;8.18;4.97;;;5.50;77.60;;;;;;4924426;29;20123;-74
2021/12/05 02:41:21;;;;;;;14.93;6.07;;;5.50;77.60;;;;;;4892652;29;20080;-74
2021/12/05 02:43:56;;;;;;;19.70;7.90;;;5.50;77.60;;;;;;4912879;29;20065;-74
2021/12/05 02:46:24;;;;;;;18.35;7.25;;;5.50;77.60;;;;;;4946428;28;20419;-74
2021/12/05 02:48:50;;;;;;;16.98;6.75;;;5.50;77.60;;;;;;4953128;29;20403;-74
2021/12/05 02:51:20;;;;;;;13.63;6.88;;;5.40;77.50;;;;;;4936478;29;20090;-75
2021/12/05 02:53:50;;;;;;;16.42;7.43;;;5.40;77.60;;;;;;4936553;29;20051;-75
2021/12/05 02:56:17;;;;;;;16.40;8.10;;;5.40;77.60;;;;;;4935906;29;20187;-75
2021/12/05 02:58:53;;;;;;;15.82;7.90;;;5.40;77.60;;;;;;4935176;29;20522;-74
2021/12/05 03:01:43;;;;;;;17.90;8.80;;;5.40;77.60;;;;;;4936199;29;20047;-74
2021/12/05 03:04:09;;;;;;;22.17;9.32;;;5.40;77.60;;;;;;4952494;29;20072;-74
2021/12/05 03:06:38;;;;;;;16.92;8.32;;;5.40;77.60;;;;;;4952181;29;20039;-74
2021/12/05 03:09:14;;;;;;;18.52;9.35;;;5.40;77.60;;;;;;4952185;28;20036;-74
2021/12/05 03:11:41;;;;;;;18.40;9.38;;;5.40;77.70;;;;;;5021217;28;20076;-74
2021/12/05 03:14:07;;;;;;;17.60;10.55;;;5.40;77.70;;;;;;5052572;28;20072;-74
2021/12/05 03:16:34;;;;;;;19.35;10.55;;;5.30;77.60;;;;;;5052566;28;20094;-74
2021/12/05 03:19:00;;;;;;;19.58;9.50;;;5.40;77.80;;;;;;5054709;28;20032;-74
2021/12/05 03:21:27;;;;;;;16.42;8.52;;;5.40;77.70;;;;;;5055999;28;20071;-74
2021/12/05 03:23:54;;;;;;;15.02;8.85;;;5.30;77.70;;;;;;5050296;28;20064;-74
2021/12/05 03:26:24;;;;;;;16.48;8.45;;;5.30;77.70;;;;;;5054651;28;20479;-75
2021/12/05 03:28:54;;;;;;;18.85;9.55;;;5.30;78.20;;;;;;5055693;28;20037;-74
2021/12/05 03:31:20;;;;;;;17.20;9.48;;;5.40;77.90;;;;;;5055417;28;20037;-74
2021/12/05 03:33:46;;;;;;;20.77;10.48;;;5.40;77.80;;;;;;5055852;28;20037;-75
2021/12/05 03:36:13;;;;;;;20.77;10.13;;;5.40;77.80;;;;;;5056006;28;20103;-74
2021/12/05 03:38:40;;;;;;;17.08;9.20;;;5.40;78.10;;;;;;5054806;28;20045;-74
2021/12/05 03:41:07;;;;;;;18.55;9.13;;;5.40;77.70;;;;;;5053082;28;20133;-74
2021/12/05 03:43:34;;;;;;;21.02;10.63;;;5.30;77.60;;;;;;5055476;28;20029;-74
2021/12/05 03:46:01;;;;;;;20.45;10.10;;;5.40;77.60;;;;;;5054010;28;20047;-75
2021/12/05 03:48:32;;;;;;;17.20;9.27;;;5.40;77.60;;;;;;5054275;28;20554;-75
2021/12/05 03:50:59;;;;;;;20.05;10.73;;;5.40;77.60;;;;;;5054833;28;20041;-74
2021/12/05 03:53:25;;;;;;;17.00;8.40;;;5.40;77.40;;;;;;5054627;28;20048;-74
2021/12/05 03:55:54;;;;;;;16.48;8.77;;;5.30;77.20;;;;;;5054741;28;20053;-74
2021/12/05 03:58:20;;;;;;;17.65;9.40;;;5.30;77.10;;;;;;5054040;28;20558;-75
2021/12/05 04:00:50;;;;;;;18.17;8.25;;;5.30;76.90;;;;;;5054552;28;20116;-74
2021/12/05 04:03:18;;;;;;;18.40;8.77;;;5.30;76.80;;;;;;5054277;28;20044;-74
2021/12/05 04:05:45;;;;;;;18.15;8.25;;;5.30;76.80;;;;;;5054501;28;20040;-73
2021/12/05 04:08:12;;;;;;;14.85;7.95;;;5.30;76.80;;;;;;5049619;28;20045;-74
2021/12/05 04:10:41;;;;;;;18.67;9.00;;;5.30;76.70;;;;;;5055297;28;20056;-74
2021/12/05 04:13:07;;;;;;;17.83;8.27;;;5.30;76.60;;;;;;5054856;28;20052;-75
2021/12/05 04:15:33;;;;;;;13.40;6.93;;;5.20;76.30;;;;;;5053532;28;20060;-74
2021/12/05 04:17:59;;;;;;;17.35;6.97;;;5.20;76.20;;;;;;5053463;28;20460;-74
2021/12/05 04:20:25;;;;;;;12.57;6.70;;;5.20;76.20;;;;;;5053995;28;20041;-75
2021/12/05 04:22:53;;;;;;;16.58;7.22;;;5.20;76.10;;;;;;5053997;28;20124;-75
2021/12/05 04:25:20;;;;;;;14.57;6.15;;;5.20;76.10;;;;;;5053571;28;20114;-74
2021/12/05 04:27:49;;;;;;;13.65;6.60;;;5.20;76.00;;;;;;5054951;28;20538;-74
2021/12/05 04:30:18;;;;;;;15.00;6.80;;;5.10;75.90;;;;;;5054433;28;20125;-74
2021/12/05 04:32:44;;;;;;;13.80;6.72;;;5.10;75.80;;;;;;5053318;28;20033;-74
2021/12/05 04:35:11;;;;;;;15.10;7.07;;;5.10;75.80;;;;;;5054127;28;20403;-73
2021/12/05 04:37:38;;;;;;;13.15;6.15;;;5.10;75.80;;;;;;5055032;28;20099;-74
2021/12/05 04:40:07;;;;;;;15.38;6.97;;;5.10;75.80;;;;;;5053796;28;20053;-74
2021/12/05 04:42:33;;;;;;;15.20;6.68;;;5.00;75.60;;;;;;5053112;28;20045;-74
2021/12/05 04:45:01;;;;;;;15.07;6.13;;;5.00;75.60;;;;;;5054211;28;20037;-73
2021/12/05 04:47:27;;;;;;;14.00;6.38;;;4.90;75.50;;;;;;5053230;28;20538;-74
2021/12/05 04:49:52;;;;;;;19.05;6.55;;;4.90;75.50;;;;;;5054753;28;20045;-74
2021/12/05 04:52:18;;;;;;;11.25;6.47;;;4.90;75.50;;;;;;5052163;28;20399;-74
2021/12/05 04:54:44;;;;;;;13.23;5.65;;;4.90;75.60;;;;;;5054549;28;20045;-74
2021/12/05 04:57:10;;;;;;;15.52;6.65;;;4.80;75.60;;;;;;5051322;28;20049;-74
2021/12/05 04:59:37;;;;;;;15.05;6.15;;;4.80;75.60;;;;;;5054832;28;20056;-74
2021/12/05 05:02:06;;;;;;;15.55;5.50;;;4.80;75.70;;;;;;5052868;28;20070;-74
2021/12/05 05:04:39;;;;;;;12.65;5.85;;;4.80;75.70;;;;;;5053408;28;20127;-74
2021/12/05 05:07:12;;;;;;;12.38;6.07;;;4.80;75.70;;;;;;5052716;28;20052;-73
2021/12/05 05:09:37;;;;;;;13.48;5.20;;;4.80;75.70;;;;;;5033525;28;20050;-74
2021/12/05 05:12:03;;;;;;;14.23;5.07;;;4.80;75.70;;;;;;5044027;28;20086;-75
2021/12/05 05:14:30;;;;;;;12.40;5.43;;;4.80;75.70;;;;;;5054375;28;20102;-74
2021/12/05 05:16:55;;;;;;;14.02;5.10;;;4.80;76.00;;;;;;5052331;28;20048;-74
2021/12/05 05:19:27;;;;;;;15.07;4.85;;;4.80;75.60;;;;;;5053029;28;20037;-74
2021/12/05 05:22:04;;;;;;;13.25;4.82;;;4.80;75.60;;;;;;5040034;28;20049;-74
2021/12/05 05:46:23;;;;;;;9.85;4.07;;;4.60;75.50;;;;;;5051063;28;20179;-74
2021/12/05 05:49:11;;;;;;;14.32;4.57;;;4.60;75.60;;;;;;5030634;28;20045;-74
2021/12/05 05:51:37;;;;;;;13.38;4.57;;;4.60;75.70;;;;;;5051362;28;20753;-74
2021/12/05 05:54:03;;;;;;;10.93;4.82;;;4.50;75.70;;;;;;5050960;28;20049;-74
2021/12/05 05:56:30;;;;;;;11.70;4.57;;;4.60;76.10;;;;;;5051562;28;20068;-74
2021/12/05 05:59:08;;;;;;;12.63;4.50;;;4.60;75.80;;;;;;5049996;28;20080;-74
2021/12/05 06:04:07;;;;;;;12.52;4.65;;;4.60;75.90;;;;;;5050603;28;20048;-74
2021/12/05 06:06:33;;;;;;;17.55;4.68;;;4.50;75.90;;;;;;5031579;28;20050;-74
2021/12/05 06:08:59;;;;;;;12.48;4.53;;;4.60;76.00;;;;;;5048821;28;20057;-73
2021/12/05 06:11:25;;;;;;;10.35;4.78;;;4.50;76.30;;;;;;5051260;28;20102;-74
2021/12/05 06:13:52;;;;;;;11.30;4.55;;;4.50;75.80;;;;;;5034497;28;20041;-74
2021/12/05 06:16:18;;;;;;;11.80;4.45;;;4.50;75.80;;;;;;5051194;28;20060;-74
2021/12/05 06:18:45;;;;;;;13.27;5.10;;;4.50;75.80;;;;;;5050468;28;20128;-74
2021/12/05 06:21:12;;;;;;;12.50;4.60;;;4.50;75.80;;;;;;5051188;28;20056;-74
2021/12/05 06:23:38;;;;;;;15.35;4.75;;;4.50;75.80;;;;;;5049223;28;20399;-74
2021/12/05 06:26:07;;;;;;;15.15;5.75;;;4.50;75.90;;;;;;5051657;28;20468;-75
2021/12/05 06:28:40;;;;;;;11.85;4.93;;;4.50;76.00;;;;;;5053100;28;20033;-74
2021/12/05 06:37:14;;;;;;;11.35;5.28;;;4.50;76.10;;;;;;5030753;28;20049;-74
2021/12/05 06:47:28;;;;;;;15.98;5.93;;;4.50;76.60;;;;;;5014548;28;20049;-74
2021/12/05 06:49:55;;;;;;;12.85;7.35;;;4.50;76.70;;;;;;5030628;28;20058;-74
2021/12/05 06:52:21;;;;;;;16.13;7.47;;;4.50;76.80;;;;;;5030702;28;20034;-75
2021/12/05 06:54:47;;;;;;;19.38;9.73;;;4.50;76.80;;;;;;5033858;28;20057;-73
2021/12/05 06:57:13;;;;;;;16.27;7.47;;;4.60;77.40;;;;;;5017788;28;20060;-74
2021/12/05 06:59:41;;;;;;;12.68;7.32;;;4.50;76.90;;;;;;5034598;28;20136;-74
2021/12/05 07:02:08;;;;;;;13.95;7.90;;;4.60;77.00;;;;;;5017156;28;20463;-74
2021/12/05 07:07:05;;;;;;;16.08;8.65;;;4.60;77.10;;;;;;5018044;28;20389;-74
2021/12/05 07:09:32;;;;;;;14.27;7.05;;;4.60;77.10;;;;;;5016263;28;20091;-74
2021/12/05 07:20:02;;;;;;;17.92;9.02;;;4.70;77.10;;;;;;5038507;28;20114;-74
2021/12/05 07:25:25;;;;;;;17.88;9.05;;;4.70;77.00;;;;;;5054836;28;20049;-74
2021/12/05 07:41:34;;;;;;;16.75;8.32;;;4.80;76.90;;;;;;5056003;28;20044;-74
2021/12/05 07:44:00;;;;;;;17.63;8.32;;;4.70;76.80;;;;;;5055235;28;20454;-73
2021/12/05 07:46:26;;;;;;;16.55;8.75;;;4.80;76.80;;;;;;5054118;28;20087;-74
2021/12/05 07:48:51;;;;;;;21.63;9.50;;;4.70;76.70;;;;;;5055531;28;20455;-74
2021/12/05 07:54:10;;;;;;;16.75;8.20;;;4.70;76.80;;;;;;5054540;28;20088;-73
2021/12/05 08:15:17;;;;;;;16.33;8.90;;;4.60;77.00;;;;;;5053498;28;20040;-75
2021/12/05 08:17:51;;;;;;;18.15;8.80;;;4.50;77.00;;;;;;5053512;28;20124;-74
2021/12/05 08:20:19;;;;;;;19.57;8.87;;;4.60;77.20;;;;;;5053836;28;20183;-74
2021/12/05 08:22:45;;;;;;;19.48;9.48;;;4.50;77.10;;;;;;5054245;28;20335;-75
2021/12/05 08:25:12;;;;;;;17.50;8.75;;;4.60;77.30;;;;;;5051643;28;20111;-74
2021/12/05 08:27:44;;;;;;;14.80;8.98;;;4.60;77.40;;;;;;5052333;28;20044;-74
2021/12/05 08:30:18;;;;;;;16.25;8.77;;;4.60;77.60;;;;;;5053566;28;20044;-74
2021/12/05 08:41:25;;;;;;;16.90;8.88;;;4.50;77.60;;;;;;5031432;28;20507;-73
2021/12/05 08:43:55;;;;;;;15.50;9.40;;;4.60;77.70;;;;;;5015217;28;20513;-73
2021/12/05 09:08:15;;;;;;;16.02;9.10;;;4.60;77.80;;;;;;5030959;28;20041;-74
2021/12/05 09:52:58;;;;;;;18.95;8.80;;;4.70;78.00;;;;;;5052619;28;20049;-73
2021/12/05 10:11:09;;;;;;;16.15;8.05;;;4.80;78.00;;;;;;5053523;28;20276;-73
2021/12/05 10:13:58;;;;;;;19.73;8.30;;;4.80;78.10;;;;;;5053410;28;20037;-73
2021/12/05 10:16:55;;;;;;;14.65;7.38;;;4.80;78.20;;;;;;5053895;28;20053;-75
2021/12/05 10:19:57;;;;;;;15.45;7.55;;;4.80;78.30;;;;;;5035992;28;20045;-74
2021/12/05 10:36:19;;;;;;;14.90;7.80;;;4.90;78.40;;;;;;5057448;28;20061;-74
2021/12/05 10:38:50;;;;;;;11.98;7.03;;;4.90;78.40;;;;;;5055869;28;20045;-73
2021/12/05 10:44:01;;;;;;;17.13;7.70;;;4.90;78.50;;;;;;5037459;28;20107;-73
2021/12/05 10:46:29;;;;;;;12.02;6.85;;;5.00;78.50;;;;;;5037351;28;20493;-73
2021/12/05 10:49:14;;;;;;;12.93;7.40;;;5.00;78.50;;;;;;5052939;28;20045;-74
2021/12/05 10:51:49;;;;;;;14.65;6.97;;;5.00;78.50;;;;;;5056467;28;20049;-74
2021/12/05 10:54:19;;;;;;;13.30;7.32;;;5.00;78.60;;;;;;5056570;28;20056;-74
2021/12/05 10:56:52;;;;;;;12.13;6.90;;;5.00;78.60;;;;;;5056673;28;20527;-73
2021/12/05 10:59:31;;;;;;;14.07;7.15;;;5.00;78.60;;;;;;5055701;28;20062;-73
2021/12/05 11:02:11;;;;;;;11.48;6.55;;;5.00;78.70;;;;;;5039344;28;20602;-74
2021/12/05 11:04:46;;;;;;;11.38;7.18;;;5.00;78.70;;;;;;5056611;28;20048;-74
2021/12/05 11:07:17;;;;;;;14.40;7.70;;;5.00;79.20;;;;;;5055527;28;20041;-72
2021/12/05 11:09:57;;;;;;;16.35;7.68;;;5.10;78.80;;;;;;5057097;28;20403;-73
2021/12/05 11:12:33;;;;;;;14.13;7.68;;;5.10;78.80;;;;;;5057031;28;20543;-74
2021/12/05 11:15:07;;;;;;;12.40;7.93;;;5.10;78.80;;;;;;5056871;28;20392;-74
2021/12/05 11:17:36;;;;;;;14.60;6.55;;;5.10;78.90;;;;;;5056524;28;20041;-74
2021/12/05 11:20:17;;;;;;;14.88;6.70;;;5.20;78.80;;;;;;5055361;28;20131;-73
2021/12/05 11:22:46;;;;;;;11.93;6.32;;;5.20;78.80;;;;;;5055040;28;20572;-73
2021/12/05 11:25:18;;;;;;;12.35;7.13;;;5.20;78.80;;;;;;5055075;28;20045;-73
2021/12/05 11:27:51;;;;;;;14.23;7.25;;;5.20;78.80;;;;;;5056464;28;20104;-74
2021/12/05 11:30:30;;;;;;;11.63;7.13;;;5.20;78.80;;;;;;5056694;28;20424;-73
2021/12/05 11:33:02;;;;;;;12.15;6.30;;;5.20;78.70;;;;;;5056304;28;20052;-73
2021/12/05 11:35:31;;;;;;;11.20;6.88;;;5.30;78.80;;;;;;5055847;28;20045;-74
2021/12/05 11:38:05;;;;;;;13.85;7.40;;;5.30;78.70;;;;;;5056308;28;20037;-73
2021/12/05 11:40:42;;;;;;;10.05;6.40;;;5.30;78.80;;;;;;5038046;28;20056;-74
2021/12/05 11:43:11;;;;;;;8.68;5.82;;;5.30;78.80;;;;;;5056122;28;20091;-72
2021/12/05 11:46:00;;;;;;;11.63;6.85;;;5.30;78.70;;;;;;5053649;28;20087;-74
2021/12/05 11:48:41;;;;;;;10.77;6.60;;;5.40;78.70;;;;;;5054770;28;20053;-74
2021/12/05 11:51:30;;;;;;;12.18;6.30;;;5.40;78.70;;;;;;5056030;28;20052;-73
2021/12/05 11:54:16;;;;;;;10.80;6.10;;;5.40;78.70;;;;;;5055638;28;20048;-73
2021/12/05 11:56:53;;;;;;;16.85;6.30;;;5.40;78.70;;;;;;5054593;28;20140;-72
2021/12/05 11:59:30;;;;;;;9.02;6.10;;;5.40;78.60;;;;;;5054533;28;20388;-73
2021/12/05 12:02:37;;;;;;;8.80;5.60;;;5.50;78.50;;;;;;5055991;28;20523;-73
2021/12/05 12:05:13;;;;;;;9.07;5.65;;;5.50;78.60;;;;;;5013783;28;20508;-73
2021/12/05 12:07:43;;;;;;;12.70;6.32;;;5.50;78.60;;;;;;4997603;28;20103;-73
2021/12/05 12:10:25;;;;;;;14.55;8.10;;;5.50;78.50;;;;;;4997543;28;20578;-74
2021/12/05 12:13:08;;;;;;;17.98;8.45;;;5.60;78.60;;;;;;4997566;28;20069;-73
2021/12/05 12:15:37;;;;;;;12.73;6.88;;;5.60;78.40;;;;;;5013416;28;20517;-75
2021/12/05 12:18:12;;;;;;;14.20;7.45;;;5.60;78.40;;;;;;4997067;28;20493;-74
2021/12/05 12:20:39;;;;;;;15.35;8.07;;;5.70;78.20;;;;;;5013534;28;20053;-73
2021/12/05 12:23:06;;;;;;;11.18;5.50;;;5.70;78.10;;;;;;4996962;28;20092;-74
2021/12/05 12:25:37;;;;;;;15.30;8.90;;;5.70;78.10;;;;;;5013327;28;20046;-73
2021/12/05 12:28:03;;;;;;;14.38;7.47;;;5.70;77.90;;;;;;5013531;28;20124;-74
2021/12/05 12:30:32;;;;;;;9.15;6.40;;;5.80;77.90;;;;;;4996716;28;20620;-74
2021/12/05 12:33:04;;;;;;;11.27;6.32;;;5.80;77.90;;;;;;4997213;28;20088;-74
2021/12/05 12:35:33;;;;;;;7.63;5.50;;;5.80;77.70;;;;;;5013129;28;20061;-74
2021/12/05 12:37:58;;;;;;;9.13;5.82;;;5.80;77.60;;;;;;4979665;28;20058;-74
2021/12/05 12:40:38;;;;;;;8.65;5.35;;;5.80;77.40;;;;;;4997014;28;20045;-75
2021/12/05 12:43:06;;;;;;;9.07;5.78;;;5.90;77.30;;;;;;5033617;28;20064;-74
2021/12/05 12:45:38;;;;;;;12.43;5.97;;;5.80;77.10;;;;;;5046864;28;20041;-74
2021/12/05 12:48:11;;;;;;;11.02;5.28;;;5.90;77.10;;;;;;5055119;28;20037;-74
2021/12/05 12:50:52;;;;;;;10.93;6.10;;;5.90;77.10;;;;;;5054649;28;20049;-72
2021/12/05 12:53:26;;;;;;;9.98;5.72;;;5.90;77.00;;;;;;5053478;28;20049;-74
2021/12/05 12:56:08;;;;;;;13.30;5.97;;;5.90;76.90;;;;;;5052810;28;20056;-74
2021/12/05 12:58:55;;;;;;;8.40;5.32;;;5.90;76.80;;;;;;5053635;28;20123;-74
2021/12/05 13:02:15;;;;;;;9.43;4.80;;;5.80;76.80;;;;;;5054430;28;20045;-73
2021/12/05 13:10:32;;;;;;;13.70;8.00;;;5.80;76.50;;;;;;5032087;28;20053;-73
2021/12/05 13:13:05;;;;;;;9.48;5.10;;;5.80;76.50;;;;;;5016332;28;20061;-73
2021/12/05 13:15:47;;;;;;;6.53;4.28;;;5.90;76.40;;;;;;5032099;28;20378;-72
2021/12/05 13:18:13;;;;;;;8.90;5.90;;;5.90;76.30;;;;;;5032382;28;20103;-73
2021/12/05 13:20:41;;;;;;;9.85;5.97;;;5.90;76.30;;;;;;5032156;28;20468;-73
2021/12/05 13:23:14;;;;;;;13.38;5.78;;;5.90;76.40;;;;;;5032611;28;20049;-73
2021/12/05 13:26:21;;;;;;;6.65;4.25;;;5.90;76.80;;;;;;5015363;28;20095;-73
2021/12/05 13:29:10;;;;;;;10.10;5.07;;;5.90;76.20;;;;;;4935042;29;20051;-73
2021/12/05 13:31:50;;;;;;;10.52;5.18;;;5.90;76.50;;;;;;4936008;29;20511;-73
2021/12/05 13:34:19;;;;;;;8.23;5.32;;;5.90;76.30;;;;;;4919458;29;20059;-74
2021/12/05 13:36:49;;;;;;;10.32;4.50;;;5.90;76.20;;;;;;4920079;29;20062;-73
2021/12/05 13:39:43;;;;;;;6.65;3.88;;;5.90;76.10;;;;;;4934915;29;20059;-73
2021/12/05 13:42:37;;;;;;;8.00;4.65;;;5.90;76.10;;;;;;4863112;29;20072;-73
2021/12/05 13:45:11;;;;;;;6.85;4.25;;;5.90;76.10;;;;;;4883783;29;20064;-73
2021/12/05 13:47:43;;;;;;;6.70;4.07;;;5.90;76.10;;;;;;4915818;29;20520;-73
2021/12/05 13:50:27;;;;;;;8.25;4.80;;;5.90;76.00;;;;;;4899745;29;20060;-73
2021/12/05 13:53:01;;;;;;;7.45;4.20;;;5.90;76.10;;;;;;4900061;29;20138;-73
2021/12/05 13:55:49;;;;;;;3.85;2.63;;;5.90;76.10;;;;;;4899540;29;20111;-73
2021/12/05 13:58:36;;;;;;;7.05;4.20;;;5.90;75.90;;;;;;4915632;29;20124;-73
2021/12/05 14:01:11;;;;;;;7.40;4.30;;;5.90;76.00;;;;;;4899690;29;20520;-73
2021/12/05 14:03:46;;;;;;;8.35;4.03;;;6.00;76.10;;;;;;4950393;28;20402;-73
2021/12/05 14:06:26;;;;;;;7.20;3.95;;;6.00;76.10;;;;;;4972247;28;20062;-73
2021/12/05 14:08:56;;;;;;;7.25;4.10;;;6.00;76.10;;;;;;4956862;28;20077;-73
2021/12/05 14:11:23;;;;;;;9.82;3.83;;;5.90;76.10;;;;;;4956658;28;20043;-73
2021/12/05 14:13:48;;;;;;;8.18;4.05;;;6.00;76.00;;;;;;4972896;28;20065;-73
2021/12/05 14:16:14;;;;;;;7.85;3.55;;;6.00;75.90;;;;;;4972552;28;20125;-73
2021/12/05 14:18:40;;;;;;;6.88;3.60;;;6.00;75.80;;;;;;4980984;28;20056;-73
2021/12/05 14:21:15;;;;;;;6.68;3.95;;;6.00;75.60;;;;;;5050865;28;20378;-73
2021/12/05 14:23:51;;;;;;;9.07;3.95;;;6.00;75.70;;;;;;5052476;28;20049;-73
2021/12/05 14:26:20;;;;;;;9.68;4.15;;;6.00;75.80;;;;;;5052860;28;20041;-73
2021/12/05 14:28:55;;;;;;;6.63;4.20;;;6.00;75.70;;;;;;5053683;28;20404;-73
2021/12/05 14:31:31;;;;;;;8.63;4.95;;;6.00;75.70;;;;;;5053221;28;20125;-73
2021/12/05 14:33:58;;;;;;;5.78;4.05;;;5.90;75.70;;;;;;5053421;28;20551;-74
2021/12/05 14:36:33;;;;;;;8.05;6.05;;;6.00;75.80;;;;;;5053271;28;20041;-73
2021/12/05 14:39:21;;;;;;;11.80;6.30;;;5.90;75.70;;;;;;5052893;28;20449;-73
2021/12/05 14:41:51;;;;;;;6.18;4.28;;;5.90;75.70;;;;;;5051853;28;20083;-73
2021/12/05 14:44:18;;;;;;;7.13;4.28;;;6.00;75.70;;;;;;5053598;28;20077;-73
2021/12/05 14:46:54;;;;;;;4.40;4.00;;;5.90;75.60;;;;;;5051778;28;20056;-74
2021/12/05 14:49:23;;;;;;;5.15;3.67;;;5.90;75.60;;;;;;5051993;28;20399;-73
2021/12/05 14:51:50;;;;;;;5.75;3.60;;;5.90;75.60;;;;;;5052919;28;20033;-73
2021/12/05 14:54:23;;;;;;;5.22;3.70;;;5.90;75.60;;;;;;5053067;28;20052;-73
2021/12/05 14:56:49;;;;;;;7.47;3.95;;;5.90;75.70;;;;;;5051462;28;20099;-72
2021/12/05 14:59:17;;;;;;;7.55;4.07;;;5.90;75.70;;;;;;5053275;28;20045;-72
2021/12/05 15:01:46;;;;;;;6.05;3.58;;;5.90;75.80;;;;;;5053115;28;20053;-72
2021/12/05 15:04:17;;;;;;;7.03;3.75;;;5.80;75.70;;;;;;5052064;28;20045;-72
2021/12/05 15:06:45;;;;;;;7.13;3.95;;;5.80;75.70;;;;;;5051747;28;20489;-72
2021/12/05 15:09:32;;;;;;;6.25;3.80;;;5.80;76.10;;;;;;5053008;28;20037;-73
2021/12/05 15:12:00;;;;;;;6.50;4.30;;;5.80;75.60;;;;;;5052978;28;20459;-72
2021/12/05 15:14:26;;;;;;;6.55;3.80;;;5.80;75.60;;;;;;5053757;28;20037;-72
2021/12/05 15:17:05;;;;;;;6.90;4.07;;;5.80;75.60;;;;;;5056630;28;20059;-73
2021/12/05 15:19:31;;;;;;;5.85;4.30;;;5.80;75.60;;;;;;5056779;28;20044;-73
2021/12/05 15:21:58;;;;;;;7.13;4.57;;;5.70;75.40;;;;;;5056329;28;20041;-72
2021/12/05 15:24:27;;;;;;;7.57;4.30;;;5.70;75.40;;;;;;5056439;28;20060;-73
2021/12/05 15:26:53;;;;;;;7.05;4.53;;;5.70;75.40;;;;;;5056497;28;20364;-72
2021/12/05 15:29:20;;;;;;;7.68;4.28;;;5.70;75.40;;;;;;5056010;28;20052;-73
2021/12/05 15:31:46;;;;;;;5.82;4.47;;;5.60;75.20;;;;;;5056730;28;20083;-73
2021/12/05 15:34:19;;;;;;;7.18;5.15;;;5.60;75.20;;;;;;5056283;28;20488;-73
2021/12/05 15:36:45;;;;;;;7.68;4.68;;;5.50;75.20;;;;;;5055689;28;20099;-74
2021/12/05 15:39:20;;;;;;;7.20;4.88;;;5.50;75.20;;;;;;5056165;28;20479;-73
2021/12/05 15:41:56;;;;;;;7.25;4.53;;;5.50;75.30;;;;;;5056071;28;20041;-72
2021/12/05 15:44:30;;;;;;;8.10;4.78;;;5.50;75.40;;;;;;5055690;28;20075;-73
2021/12/05 15:47:13;;;;;;;8.93;4.70;;;5.40;75.40;;;;;;5055155;28;20044;-72
2021/12/05 15:49:54;;;;;;;7.70;5.25;;;5.40;75.50;;;;;;5055598;28;20073;-73
2021/12/05 15:52:23;;;;;;;8.13;5.60;;;5.40;75.60;;;;;;5054791;28;20081;-71
2021/12/05 15:54:51;;;;;;;8.73;5.68;;;5.40;75.60;;;;;;5035986;28;20092;-73
2021/12/05 15:57:27;;;;;;;7.90;5.07;;;5.40;75.70;;;;;;5043237;28;20057;-72
2021/12/05 15:59:53;;;;;;;7.78;4.97;;;5.40;75.70;;;;;;5047571;28;20408;-73
2021/12/05 16:02:19;;;;;;;8.35;5.13;;;5.40;75.70;;;;;;5054711;28;20045;-73
2021/12/05 16:04:48;;;;;;;8.77;5.28;;;5.40;75.80;;;;;;5054364;28;20128;-72
2021/12/05 16:07:16;;;;;;;9.00;5.43;;;5.40;75.80;;;;;;5055013;28;20053;-73
2021/12/05 16:09:43;;;;;;;7.65;4.78;;;5.40;75.90;;;;;;5054073;28;20052;-72
2021/12/05 16:12:17;;;;;;;6.97;4.85;;;5.40;75.90;;;;;;5054452;28;20045;-73
2021/12/05 16:14:52;;;;;;;5.97;4.93;;;5.40;75.90;;;;;;5055505;28;20128;-72
2021/12/05 16:17:25;;;;;;;6.95;4.97;;;5.40;76.00;;;;;;5055675;28;20530;-74
2021/12/05 16:20:10;;;;;;;6.97;5.05;;;5.40;76.00;;;;;;5054197;28;20128;-73
2021/12/05 16:23:11;;;;;;;6.88;5.50;;;5.40;76.00;;;;;;5055546;28;20435;-73
2021/12/05 16:25:44;;;;;;;7.80;5.20;;;5.30;76.00;;;;;;5034023;28;20041;-73
2021/12/05 16:28:12;;;;;;;7.20;4.85;;;5.30;76.10;;;;;;5052717;28;20052;-73
2021/12/05 16:30:48;;;;;;;5.97;4.55;;;5.30;76.10;;;;;;5054096;28;20057;-73
2021/12/05 16:33:18;;;;;;;7.25;4.38;;;5.40;76.30;;;;;;5055279;28;20511;-74
2021/12/05 16:35:49;;;;;;;9.25;5.50;;;5.40;76.40;;;;;;5055318;28;20048;-74
2021/12/05 16:38:23;;;;;;;9.85;5.70;;;5.40;76.50;;;;;;5055046;28;20098;-73
2021/12/05 16:40:52;;;;;;;;;;;5.40;76.60;;;;;;5036246;28;20046;-73
2021/12/05 16:43:17;;;;;;;6.63;5.28;;;5.40;76.40;;;;;;5055253;28;19958;-73
2021/12/05 16:45:43;;;;;;;10.73;6.57;;;5.40;76.60;;;;;;5035019;28;20060;-74
2021/12/05 16:48:15;;;;;;;9.98;6.80;;;5.40;76.60;;;;;;5035090;28;20048;-73
2021/12/05 16:50:40;;;;;;;9.30;7.05;;;5.40;76.60;;;;;;5052923;28;20033;-73
2021/12/05 16:53:07;;;;;;;9.40;6.40;;;5.40;76.50;;;;;;5054441;28;20048;-73
2021/12/05 16:55:34;;;;;;;13.30;7.65;;;5.50;76.50;;;;;;5054211;28;20040;-73
2021/12/05 16:58:16;;;;;;;10.73;7.38;;;5.50;76.50;;;;;;5054957;28;20052;-73
2021/12/05 17:00:48;;;;;;;10.32;6.72;;;5.40;76.40;;;;;;5053527;28;20053;-74
2021/12/05 17:03:23;;;;;;;8.27;7.07;;;5.50;76.50;;;;;;5053749;28;20041;-72
2021/12/05 17:05:51;;;;;;;8.70;7.38;;;5.40;76.40;;;;;;5053240;28;20040;-73
2021/12/05 17:08:23;;;;;;;8.93;7.13;;;5.50;76.40;;;;;;5053298;28;20053;-73
2021/12/05 17:10:54;;;;;;;9.85;7.22;;;5.40;76.40;;;;;;5052678;28;20083;-72
2021/12/05 17:13:28;;;;;;;9.73;7.30;;;5.40;76.30;;;;;;5052653;28;20045;-73
2021/12/05 17:16:16;;;;;;;10.25;7.60;;;5.50;76.50;;;;;;5052968;28;20052;-73
2021/12/05 17:19:01;;;;;;;10.63;7.32;;;5.40;76.40;;;;;;5053180;28;20167;-73
2021/12/05 17:21:34;;;;;;;11.05;6.72;;;5.40;76.40;;;;;;5054047;28;20082;-73
2021/12/05 17:24:05;;;;;;;9.32;6.75;;;5.40;76.50;;;;;;5054064;28;20040;-73
2021/12/05 17:26:35;;;;;;;12.65;7.70;;;5.40;76.40;;;;;;5034634;28;20056;-73
2021/12/05 17:29:19;;;;;;;10.93;6.97;;;5.40;76.50;;;;;;5034321;28;20037;-74
2021/12/05 17:31:57;;;;;;;10.60;6.75;;;5.40;76.50;;;;;;5033361;28;20041;-73
2021/12/05 17:34:29;;;;;;;12.50;7.93;;;5.40;76.50;;;;;;5035314;28;20534;-73
2021/12/05 17:37:10;;;;;;;15.13;8.45;;;5.40;76.60;;;;;;5053444;28;20511;-73
2021/12/05 17:39:41;;;;;;;13.32;8.23;;;5.40;76.60;;;;;;5053547;28;20059;-72
2021/12/05 17:42:12;;;;;;;9.23;7.10;;;5.40;76.70;;;;;;5054139;28;20049;-73
2021/12/05 17:44:42;;;;;;;12.75;7.82;;;5.40;76.70;;;;;;5052706;28;20049;-72
2021/12/05 17:47:10;;;;;;;10.00;7.30;;;5.40;76.80;;;;;;5052797;28;20049;-73
2021/12/05 17:49:39;;;;;;;13.57;7.28;;;5.40;76.80;;;;;;5053620;28;20087;-73
2021/12/05 17:52:07;;;;;;;12.10;7.43;;;5.40;76.80;;;;;;5053978;28;20045;-73
2021/12/05 17:54:50;;;;;;;12.70;8.27;;;5.40;76.80;;;;;;5053288;28;20048;-73
2021/12/05 17:57:21;;;;;;;10.32;8.18;;;5.40;76.90;;;;;;5016051;28;20057;-73
2021/12/05 18:00:01;;;;;;;11.77;9.18;;;5.40;77.00;;;;;;5035406;28;20084;-73
2021/12/05 18:05:09;;;;;;;13.18;8.77;;;5.40;77.60;;;;;;5035360;28;20057;-73
2021/12/05 18:07:35;;;;;;;11.50;8.77;;;5.40;77.30;;;;;;5054131;28;20048;-73
2021/12/05 18:10:02;;;;;;;17.60;9.15;;;5.40;77.30;;;;;;5035397;28;20136;-73
2021/12/05 18:12:35;;;;;;;11.60;8.55;;;5.40;77.40;;;;;;5052778;28;20100;-73
2021/12/05 18:15:04;;;;;;;15.25;9.55;;;5.40;77.50;;;;;;5035527;28;20049;-73
2021/12/05 18:17:30;;;;;;;17.25;11.68;;;5.40;77.60;;;;;;5053712;28;20500;-73
2021/12/05 18:19:56;;;;;;;21.25;12.93;;;5.50;77.70;;;;;;5052371;28;20105;-73
2021/12/05 18:22:22;;;;;;;20.02;13.00;;;5.50;77.80;;;;;;5052269;28;20480;-73
2021/12/05 18:24:48;;;;;;;16.98;11.68;;;5.50;77.80;;;;;;5053409;28;20049;-73
2021/12/05 18:27:17;;;;;;;16.63;11.90;;;5.50;77.80;;;;;;5052689;28;20419;-74
2021/12/05 18:29:44;;;;;;;16.33;12.20;;;5.50;77.90;;;;;;5053474;28;20045;-72
2021/12/05 18:32:11;;;;;;;19.38;12.57;;;5.50;77.90;;;;;;5053314;28;20088;-74